Time;durP1;ratioP1;P1;durP2;ratioP2;P2;SDS_P1;SDS_P2;PMS_P1;PMS_P2;Temp;Humidity;BMP_temperature;BMP_pressure;BME280_temperature;BME280_humidity;BME280_pressure;Samples;Min_cycle;Max_cycle;Signal;HPM_P1;HPM_P2
2023/07/25 00:00:09;;;;;;;3.97;0.90;;;12.70;99.90;;;;;;6370670;22;20019;-81
2023/07/25 00:02:35;;;;;;;1.40;0.70;;;12.70;99.90;;;;;;6342889;22;20022;-81
2023/07/25 00:05:02;;;;;;;1.58;0.60;;;12.70;99.90;;;;;;6371313;22;20014;-81
2023/07/25 00:07:27;;;;;;;1.15;0.63;;;12.60;99.90;;;;;;6370757;22;20014;-81
2023/07/25 00:09:53;;;;;;;6.43;0.65;;;12.60;99.90;;;;;;6342811;22;20534;-83
2023/07/25 00:12:19;;;;;;;6.07;1.60;;;12.60;99.90;;;;;;6371116;22;20529;-81
2023/07/25 00:14:44;;;;;;;1.15;0.70;;;12.60;99.90;;;;;;6371069;22;20321;-81
2023/07/25 00:17:10;;;;;;;3.20;0.90;;;12.60;99.90;;;;;;6370886;22;20014;-82
2023/07/25 00:19:36;;;;;;;3.50;0.60;;;12.70;99.90;;;;;;6370952;22;20010;-82
2023/07/25 00:22:01;;;;;;;1.77;0.70;;;12.70;99.90;;;;;;6371163;22;20135;-83
2023/07/25 00:24:27;;;;;;;1.75;0.65;;;12.70;99.90;;;;;;6343231;22;20019;-83
2023/07/25 00:26:53;;;;;;;2.17;0.90;;;12.90;99.90;;;;;;6370585;22;20075;-82
2023/07/25 00:29:18;;;;;;;1.95;0.93;;;12.60;99.90;;;;;;6370502;22;20441;-82
2023/07/25 00:31:44;;;;;;;2.72;0.80;;;12.60;99.90;;;;;;6342810;22;20344;-81
2023/07/25 00:34:09;;;;;;;1.55;0.70;;;12.90;99.90;;;;;;6343046;22;20014;-82
2023/07/25 00:36:35;;;;;;;4.90;0.85;;;12.50;99.90;;;;;;6342544;22;20341;-84
2023/07/25 00:39:01;;;;;;;1.35;0.70;;;12.50;99.90;;;;;;6343376;22;20421;-82
2023/07/25 00:45:08;;;;;;;4.97;0.85;;;12.50;99.90;;;;;;6370635;22;20025;-81
2023/07/25 00:47:33;;;;;;;1.90;0.73;;;12.50;99.90;;;;;;6317326;22;20088;-80
2023/07/25 00:49:59;;;;;;;2.72;0.73;;;12.50;99.90;;;;;;6370978;22;20019;-81
2023/07/25 00:52:26;;;;;;;3.15;0.60;;;12.50;99.90;;;;;;6368561;22;20015;-83
2023/07/25 00:54:52;;;;;;;2.05;0.80;;;12.50;99.90;;;;;;6369767;22;20010;-81
2023/07/25 00:57:19;;;;;;;2.78;0.75;;;12.40;99.90;;;;;;6370242;22;20553;-82
2023/07/25 00:59:46;;;;;;;3.40;0.80;;;12.50;99.90;;;;;;6370671;22;20071;-82
2023/07/25 01:02:13;;;;;;;1.73;0.60;;;12.40;99.90;;;;;;6370229;22;20022;-82
2023/07/25 01:04:40;;;;;;;1.45;0.60;;;12.40;99.90;;;;;;6369649;22;20021;-80
2023/07/25 01:07:06;;;;;;;1.50;0.60;;;12.40;99.90;;;;;;6370130;22;20018;-83
2023/07/25 01:09:37;;;;;;;2.33;0.60;;;12.30;99.90;;;;;;6369991;22;20021;-82
2023/07/25 01:12:05;;;;;;;2.90;1.33;;;12.30;99.90;;;;;;6370534;22;20011;-83
2023/07/25 01:14:32;;;;;;;1.45;0.60;;;12.40;99.90;;;;;;6369954;22;20041;-81
2023/07/25 01:17:01;;;;;;;2.33;0.60;;;12.30;99.90;;;;;;6369526;22;20015;-82
2023/07/25 01:19:31;;;;;;;4.53;0.50;;;12.30;99.90;;;;;;6369188;22;20046;-81
2023/07/25 01:22:00;;;;;;;1.35;0.60;;;12.70;99.90;;;;;;6370326;22;20025;-82
2023/07/25 01:24:26;;;;;;;1.33;0.57;;;12.30;99.90;;;;;;6369609;22;20010;-82
2023/07/25 01:26:52;;;;;;;3.67;0.70;;;12.50;99.90;;;;;;6368008;22;20345;-82
2023/07/25 01:29:17;;;;;;;2.53;0.70;;;12.30;99.90;;;;;;6368492;22;20018;-81
2023/07/25 01:31:43;;;;;;;0.93;0.45;;;12.30;99.90;;;;;;6370548;22;20024;-81
2023/07/25 01:34:09;;;;;;;2.63;0.77;;;12.30;99.90;;;;;;6368329;22;20348;-81
2023/07/25 01:36:34;;;;;;;1.30;0.47;;;12.30;99.90;;;;;;6370104;22;20010;-81
2023/07/25 01:39:00;;;;;;;0.80;0.55;;;12.40;99.90;;;;;;6370564;22;20010;-82
2023/07/25 01:41:26;;;;;;;1.30;0.52;;;12.20;99.90;;;;;;6368136;22;20094;-81
2023/07/25 01:43:51;;;;;;;2.00;0.60;;;12.50;99.90;;;;;;6342446;22;20021;-81
2023/07/25 01:46:17;;;;;;;0.65;0.40;;;12.30;99.90;;;;;;6370121;22;20010;-83
2023/07/25 01:48:43;;;;;;;1.55;0.50;;;12.30;99.90;;;;;;6370132;22;20018;-81
2023/07/25 01:51:08;;;;;;;0.82;0.40;;;12.40;99.90;;;;;;6370202;22;20026;-82
2023/07/25 01:53:34;;;;;;;1.33;0.57;;;12.40;99.90;;;;;;6370204;22;20472;-82
2023/07/25 01:56:00;;;;;;;0.60;0.50;;;12.40;99.90;;;;;;6369933;22;20087;-82
2023/07/25 01:58:25;;;;;;;0.98;0.60;;;12.40;99.90;;;;;;6370103;22;20019;-83
2023/07/25 02:00:58;;;;;;;1.27;0.47;;;12.70;99.90;;;;;;6370199;22;20017;-83
2023/07/25 02:03:23;;;;;;;2.53;0.50;;;12.50;99.90;;;;;;6370541;22;20445;-83
2023/07/25 02:05:50;;;;;;;5.22;0.60;;;12.60;99.90;;;;;;6372095;22;20007;-82
2023/07/25 02:08:16;;;;;;;1.40;0.50;;;12.60;99.90;;;;;;6372064;22;20021;-82
2023/07/25 02:10:42;;;;;;;3.10;0.65;;;12.70;99.90;;;;;;6317847;22;20018;-81
2023/07/25 02:13:07;;;;;;;1.73;0.50;;;12.70;99.90;;;;;;6372047;22;20038;-81
2023/07/25 02:15:34;;;;;;;3.47;0.73;;;12.70;99.90;;;;;;6372148;22;20022;-81
2023/07/25 02:18:00;;;;;;;1.65;0.45;;;12.70;99.90;;;;;;6371284;22;20029;-82
2023/07/25 02:20:27;;;;;;;3.38;0.55;;;12.80;99.90;;;;;;6372295;22;20018;-81
2023/07/25 02:22:52;;;;;;;2.17;0.85;;;12.80;99.90;;;;;;6317848;22;20022;-82
2023/07/25 02:25:19;;;;;;;3.88;0.82;;;12.90;99.90;;;;;;6371597;22;20306;-82
2023/07/25 02:27:45;;;;;;;7.07;1.00;;;13.00;99.90;;;;;;6343459;22;20091;-82
2023/07/25 02:30:11;;;;;;;3.53;0.90;;;13.10;99.90;;;;;;6371619;22;20010;-82
2023/07/25 02:32:37;;;;;;;4.07;0.88;;;13.40;99.90;;;;;;6371685;22;20018;-81
2023/07/25 02:35:03;;;;;;;2.53;0.80;;;13.30;99.90;;;;;;6372153;22;20467;-82
2023/07/25 02:37:28;;;;;;;4.03;1.00;;;13.50;99.90;;;;;;6343737;22;20079;-81
2023/07/25 02:39:54;;;;;;;5.07;0.98;;;13.50;99.90;;;;;;6371427;22;20014;-81
2023/07/25 02:42:20;;;;;;;2.67;0.68;;;13.50;99.90;;;;;;6343610;22;20040;-81
2023/07/25 02:44:45;;;;;;;3.63;0.80;;;13.50;99.90;;;;;;6371370;22;20064;-81
2023/07/25 02:47:11;;;;;;;3.15;0.70;;;13.50;99.90;;;;;;6371547;22;20024;-81
2023/07/25 02:49:38;;;;;;;3.33;0.75;;;13.70;99.90;;;;;;6371777;22;20094;-81
2023/07/25 02:52:05;;;;;;;3.92;0.73;;;13.70;99.90;;;;;;6343924;22;20448;-81
2023/07/25 02:54:30;;;;;;;5.72;1.00;;;13.80;99.90;;;;;;6371635;22;20010;-81
2023/07/25 02:56:56;;;;;;;5.13;0.75;;;13.80;99.90;;;;;;6343162;22;20029;-81
2023/07/25 02:59:22;;;;;;;5.07;1.30;;;13.80;99.90;;;;;;6371612;22;20052;-81
2023/07/25 03:01:48;;;;;;;4.32;1.13;;;13.80;99.90;;;;;;6371452;22;20451;-82
2023/07/25 03:04:13;;;;;;;3.97;1.00;;;13.80;99.90;;;;;;6370746;22;20456;-82
2023/07/25 03:06:39;;;;;;;5.53;0.90;;;13.80;99.90;;;;;;6343357;22;20018;-80
2023/07/25 03:09:05;;;;;;;3.20;1.00;;;13.90;99.90;;;;;;6371331;22;20442;-82
2023/07/25 03:11:30;;;;;;;2.13;0.90;;;13.80;99.90;;;;;;6371718;22;20011;-81
2023/07/25 03:13:56;;;;;;;4.20;0.80;;;13.70;99.90;;;;;;6371503;22;20097;-82
2023/07/25 03:16:22;;;;;;;6.55;0.93;;;13.70;99.90;;;;;;6371505;22;20010;-82
2023/07/25 03:18:47;;;;;;;2.60;0.60;;;13.70;99.90;;;;;;6371223;22;20440;-81
2023/07/25 03:21:13;;;;;;;1.83;0.60;;;13.60;99.90;;;;;;6371252;22;20011;-82
2023/07/25 03:23:39;;;;;;;4.68;0.70;;;13.70;99.90;;;;;;6343007;22;20459;-82
2023/07/25 03:26:04;;;;;;;1.85;0.73;;;13.70;99.90;;;;;;6343580;22;20090;-81
2023/07/25 03:28:30;;;;;;;5.40;0.88;;;13.60;99.90;;;;;;6343014;22;20045;-82
2023/07/25 03:30:56;;;;;;;3.60;0.90;;;13.50;99.90;;;;;;6371407;22;20081;-82
2023/07/25 03:33:22;;;;;;;2.25;0.60;;;13.50;99.90;;;;;;6317052;22;20345;-81
2023/07/25 03:35:47;;;;;;;1.30;0.50;;;13.50;99.90;;;;;;6370798;22;20010;-82
2023/07/25 03:38:13;;;;;;;1.15;0.60;;;13.50;99.90;;;;;;6371274;22;20019;-81
2023/07/25 03:40:38;;;;;;;3.25;0.80;;;13.40;99.90;;;;;;6370962;22;20010;-82
2023/07/25 03:43:04;;;;;;;1.38;0.50;;;13.40;99.90;;;;;;6370795;22;20021;-82
2023/07/25 03:45:30;;;;;;;1.00;0.40;;;13.50;99.90;;;;;;6342750;22;20012;-82
2023/07/25 03:47:56;;;;;;;1.30;0.52;;;13.30;99.90;;;;;;6370675;22;20093;-82
2023/07/25 03:50:21;;;;;;;1.27;0.47;;;13.50;99.90;;;;;;6371010;22;20019;-81
2023/07/25 03:52:47;;;;;;;1.80;0.68;;;13.50;99.90;;;;;;6371121;22;20046;-82
2023/07/25 03:55:13;;;;;;;0.85;0.45;;;13.50;99.90;;;;;;6343271;22;20020;-82
2023/07/25 03:57:38;;;;;;;1.45;0.50;;;13.40;99.90;;;;;;6371225;22;20026;-81
2023/07/25 04:00:05;;;;;;;3.67;0.63;;;13.40;99.90;;;;;;6370923;22;20075;-81
2023/07/25 04:02:30;;;;;;;1.83;0.90;;;13.40;99.90;;;;;;6342543;22;20018;-82
2023/07/25 04:04:56;;;;;;;1.60;0.70;;;13.40;99.90;;;;;;6343388;22;20477;-83
2023/07/25 04:07:22;;;;;;;2.70;0.50;;;13.30;99.90;;;;;;6370212;22;20041;-82
2023/07/25 04:09:47;;;;;;;1.02;0.55;;;13.30;99.90;;;;;;6342653;22;20049;-81
2023/07/25 04:12:13;;;;;;;1.45;0.45;;;13.30;99.90;;;;;;6370888;22;20018;-81
2023/07/25 04:14:39;;;;;;;3.13;0.60;;;13.30;99.90;;;;;;6370613;22;20022;-82
2023/07/25 04:17:05;;;;;;;4.18;0.80;;;13.20;99.90;;;;;;6342722;22;20010;-81
2023/07/25 04:19:31;;;;;;;1.25;0.40;;;13.20;99.90;;;;;;6342777;22;20029;-81
2023/07/25 04:21:56;;;;;;;1.55;0.90;;;13.20;99.90;;;;;;6342572;22;20122;-81
2023/07/25 04:24:22;;;;;;;0.68;0.55;;;13.30;99.90;;;;;;6370767;22;20019;-82
2023/07/25 04:26:48;;;;;;;0.75;0.50;;;13.20;99.90;;;;;;6370157;22;20133;-81
2023/07/25 04:29:13;;;;;;;1.85;0.60;;;13.20;99.90;;;;;;6370840;22;20047;-81
2023/07/25 04:31:39;;;;;;;1.13;0.50;;;13.20;99.90;;;;;;6370989;22;20014;-81
2023/07/25 04:34:05;;;;;;;2.75;0.50;;;13.10;99.90;;;;;;6370819;22;20010;-81
2023/07/25 04:36:30;;;;;;;0.95;0.52;;;13.20;99.90;;;;;;6370398;22;20010;-81
2023/07/25 04:38:56;;;;;;;2.50;0.50;;;13.20;99.90;;;;;;6370194;22;20021;-83
2023/07/25 04:41:23;;;;;;;5.05;0.80;;;13.20;99.90;;;;;;6342476;22;20122;-82
2023/07/25 04:43:48;;;;;;;1.00;0.43;;;13.20;99.90;;;;;;6370516;22;20014;-82
2023/07/25 04:46:14;;;;;;;2.15;0.50;;;13.30;99.90;;;;;;6342611;22;20036;-82
2023/07/25 04:48:40;;;;;;;4.32;0.68;;;13.20;99.90;;;;;;6370244;22;20075;-81
2023/07/25 04:51:05;;;;;;;2.75;0.70;;;13.30;99.90;;;;;;6370291;22;20075;-81
2023/07/25 04:53:31;;;;;;;0.65;0.50;;;13.30;99.90;;;;;;6370595;22;20014;-81
2023/07/25 04:55:56;;;;;;;2.05;0.60;;;13.50;99.90;;;;;;6342387;22;20062;-81
2023/07/25 04:58:22;;;;;;;1.08;0.50;;;13.50;99.90;;;;;;6370536;22;20025;-81
2023/07/25 05:00:48;;;;;;;1.75;0.50;;;13.50;99.90;;;;;;6342688;22;20024;-82
2023/07/25 05:03:14;;;;;;;1.70;0.55;;;13.60;99.90;;;;;;6370119;22;20026;-81
2023/07/25 05:05:39;;;;;;;1.27;0.70;;;13.70;99.90;;;;;;6370210;22;20068;-81
2023/07/25 05:08:05;;;;;;;1.52;0.50;;;13.70;99.90;;;;;;6342483;22;20018;-82
2023/07/25 05:10:31;;;;;;;1.50;0.50;;;13.80;99.90;;;;;;6342746;22;20033;-81
2023/07/25 05:12:57;;;;;;;0.70;0.40;;;13.80;99.90;;;;;;6342476;22;20050;-81
2023/07/25 05:15:23;;;;;;;1.55;0.40;;;13.80;99.90;;;;;;6341974;22;20386;-81
2023/07/25 05:17:49;;;;;;;4.18;0.60;;;13.90;99.90;;;;;;6369749;22;20037;-81
2023/07/25 05:20:15;;;;;;;1.48;0.50;;;14.00;99.90;;;;;;6369859;22;20014;-83
2023/07/25 05:22:40;;;;;;;2.10;0.50;;;13.90;99.90;;;;;;6370236;22;20089;-83
2023/07/25 05:25:07;;;;;;;2.13;0.50;;;14.00;99.90;;;;;;6341713;22;20033;-81
2023/07/25 05:27:32;;;;;;;1.15;0.43;;;14.00;99.90;;;;;;6370221;22;20010;-81
2023/07/25 05:29:58;;;;;;;1.20;0.47;;;13.90;99.90;;;;;;6369795;22;20152;-81
2023/07/25 05:32:24;;;;;;;1.50;0.40;;;14.00;99.90;;;;;;6342673;22;20018;-81
2023/07/25 05:34:49;;;;;;;1.33;0.40;;;14.00;99.90;;;;;;6370410;22;20085;-81
2023/07/25 05:37:18;;;;;;;1.50;0.40;;;14.00;99.90;;;;;;6369348;22;20011;-81
2023/07/25 05:39:44;;;;;;;1.48;0.45;;;14.10;99.90;;;;;;6342044;22;20318;-81
2023/07/25 05:42:10;;;;;;;0.70;0.43;;;14.10;99.90;;;;;;6370300;22;20014;-80
2023/07/25 05:44:35;;;;;;;0.90;0.50;;;14.40;99.90;;;;;;6369577;22;20050;-81
2023/07/25 05:47:05;;;;;;;0.73;0.47;;;14.20;99.90;;;;;;6370119;22;20007;-84
2023/07/25 05:49:31;;;;;;;3.13;0.50;;;14.20;99.90;;;;;;6369388;22;20021;-83
2023/07/25 05:51:56;;;;;;;1.30;0.50;;;14.20;99.90;;;;;;6370073;22;20018;-84
2023/07/25 05:54:22;;;;;;;3.55;0.50;;;14.20;99.90;;;;;;6315713;22;20011;-82
2023/07/25 05:56:48;;;;;;;1.70;0.43;;;14.10;99.90;;;;;;6368887;22;20030;-80
2023/07/25 05:59:14;;;;;;;1.67;0.60;;;14.10;99.90;;;;;;6369945;22;20011;-84
2023/07/25 06:01:40;;;;;;;5.53;0.50;;;14.20;99.90;;;;;;6341699;22;20014;-82
2023/07/25 06:04:06;;;;;;;1.55;0.47;;;14.10;99.90;;;;;;6369455;22;20052;-81
2023/07/25 06:06:32;;;;;;;3.30;0.55;;;14.20;99.90;;;;;;6369750;22;20010;-82
2023/07/25 06:08:57;;;;;;;0.95;0.50;;;14.30;99.90;;;;;;6315850;22;20041;-83
2023/07/25 06:11:25;;;;;;;4.25;0.30;;;14.30;99.90;;;;;;6369655;22;20037;-82
2023/07/25 06:13:52;;;;;;;1.85;0.40;;;14.50;99.90;;;;;;6369539;22;20014;-84
2023/07/25 06:16:18;;;;;;;1.05;0.43;;;14.60;99.90;;;;;;6369439;22;20014;-82
2023/07/25 06:18:44;;;;;;;1.27;0.63;;;14.70;99.90;;;;;;6369433;22;20045;-82
2023/07/25 06:21:10;;;;;;;1.55;0.50;;;14.90;99.90;;;;;;6369837;22;20010;-83
2023/07/25 06:23:36;;;;;;;0.98;0.45;;;15.00;99.90;;;;;;6341810;22;20070;-83
2023/07/25 06:26:02;;;;;;;0.90;0.60;;;15.20;99.90;;;;;;6341614;22;20053;-81
2023/07/25 06:28:28;;;;;;;1.33;0.60;;;15.30;99.90;;;;;;6341345;22;20106;-82
2023/07/25 06:30:53;;;;;;;2.63;0.50;;;15.40;99.90;;;;;;6369829;22;20081;-83
2023/07/25 06:33:19;;;;;;;1.00;0.40;;;15.50;99.90;;;;;;6341825;22;20458;-84
2023/07/25 06:35:45;;;;;;;1.13;0.38;;;15.60;99.90;;;;;;6369322;22;20010;-83
2023/07/25 06:38:10;;;;;;;5.32;0.50;;;15.80;99.90;;;;;;6369855;22;20025;-85
2023/07/25 06:40:36;;;;;;;3.08;0.50;;;15.90;99.90;;;;;;6341562;22;20014;-83
2023/07/25 06:43:02;;;;;;;2.80;0.43;;;16.00;99.90;;;;;;6369870;22;20010;-82
2023/07/25 06:45:28;;;;;;;3.55;1.92;;;16.10;99.90;;;;;;6369757;22;20018;-83
2023/07/25 06:47:53;;;;;;;2.00;0.40;;;16.20;99.90;;;;;;6369615;22;20014;-82
2023/07/25 06:50:20;;;;;;;2.47;0.43;;;16.30;99.90;;;;;;6367221;22;20029;-82
2023/07/25 06:52:46;;;;;;;3.30;0.40;;;16.30;99.90;;;;;;6371651;22;20022;-83
2023/07/25 06:55:12;;;;;;;1.80;0.60;;;16.40;99.90;;;;;;6371887;22;20014;-82
2023/07/25 06:57:38;;;;;;;7.20;0.52;;;16.50;99.90;;;;;;6370213;22;20024;-84
2023/07/25 07:00:04;;;;;;;2.22;0.40;;;16.80;99.90;;;;;;6369377;22;20018;-82
2023/07/25 07:02:30;;;;;;;3.00;0.68;;;16.90;99.90;;;;;;6371678;22;20024;-83
2023/07/25 07:04:58;;;;;;;1.20;0.40;;;16.90;99.90;;;;;;6369418;22;20006;-83
2023/07/25 07:07:24;;;;;;;0.60;0.38;;;17.00;99.90;;;;;;6371012;22;20022;-83
2023/07/25 07:09:50;;;;;;;3.08;0.30;;;17.00;99.90;;;;;;6371587;22;20063;-83
2023/07/25 07:12:17;;;;;;;2.15;0.30;;;16.80;99.90;;;;;;6369448;22;20394;-83
2023/07/25 07:14:43;;;;;;;2.63;0.30;;;16.80;99.90;;;;;;6369388;22;20037;-83
2023/07/25 07:17:09;;;;;;;1.23;0.30;;;16.90;99.90;;;;;;6371080;22;20501;-83
2023/07/25 07:19:34;;;;;;;0.73;0.20;;;16.90;99.90;;;;;;6370781;22;20098;-84
2023/07/25 07:22:00;;;;;;;0.98;0.22;;;17.00;99.90;;;;;;6371685;22;20015;-83
2023/07/25 07:24:26;;;;;;;2.75;0.65;;;17.10;99.90;;;;;;6369815;22;20018;-82
2023/07/25 07:26:51;;;;;;;0.30;0.17;;;17.30;99.90;;;;;;6368932;22;20010;-82
2023/07/25 07:29:18;;;;;;;2.55;0.30;;;17.30;99.90;;;;;;6371352;22;20034;-82
2023/07/25 07:31:44;;;;;;;3.45;0.32;;;17.50;99.90;;;;;;6343044;22;20471;-81
2023/07/25 07:34:17;;;;;;;0.30;0.10;;;17.50;99.90;;;;;;6371340;22;20018;-81
2023/07/25 07:36:43;;;;;;;0.73;0.20;;;17.60;99.90;;;;;;6371061;22;20383;-81
2023/07/25 07:39:10;;;;;;;2.85;0.30;;;17.80;99.90;;;;;;6370738;22;20452;-81
2023/07/25 07:41:35;;;;;;;1.90;0.30;;;18.00;99.90;;;;;;6370615;22;20433;-81
2023/07/25 07:44:01;;;;;;;0.95;0.20;;;18.20;99.90;;;;;;6369316;22;20025;-81
2023/07/25 07:46:29;;;;;;;1.67;0.30;;;18.20;99.90;;;;;;6369642;22;20017;-81
2023/07/25 07:48:57;;;;;;;2.92;0.70;;;18.50;99.90;;;;;;6371021;22;20010;-81
2023/07/25 07:51:23;;;;;;;2.83;0.40;;;18.60;99.90;;;;;;6371110;22;20050;-81
2023/07/25 07:53:49;;;;;;;2.35;0.40;;;18.70;99.90;;;;;;6342720;22;20045;-81
2023/07/25 07:56:15;;;;;;;0.80;0.20;;;18.70;99.90;;;;;;6370816;22;20026;-81
2023/07/25 07:58:40;;;;;;;1.77;0.20;;;18.50;99.90;;;;;;6371035;22;20014;-81
2023/07/25 08:01:17;;;;;;;2.25;0.25;;;18.40;99.90;;;;;;6342599;22;20429;-82
2023/07/25 08:03:47;;;;;;;4.20;0.30;;;18.40;99.90;;;;;;6371263;22;20018;-81
2023/07/25 08:06:13;;;;;;;3.38;0.40;;;18.50;99.90;;;;;;6370794;22;20089;-81
2023/07/25 08:08:40;;;;;;;2.42;0.30;;;18.60;99.90;;;;;;6342933;22;20067;-82
2023/07/25 08:11:06;;;;;;;1.45;0.20;;;18.50;99.90;;;;;;6342744;22;20093;-81
2023/07/25 08:13:32;;;;;;;2.67;0.40;;;18.40;99.90;;;;;;6343610;22;20064;-81
2023/07/25 08:15:58;;;;;;;2.53;0.30;;;18.50;99.90;;;;;;6371281;22;20018;-81
2023/07/25 08:18:23;;;;;;;1.80;0.20;;;18.50;99.90;;;;;;6371171;22;20014;-81
2023/07/25 08:20:58;;;;;;;1.92;0.20;;;18.50;99.90;;;;;;6342943;22;20022;-81
2023/07/25 08:23:25;;;;;;;2.92;0.30;;;18.60;99.90;;;;;;6370636;22;20036;-82
2023/07/25 08:25:51;;;;;;;1.95;0.30;;;18.80;99.90;;;;;;6342755;22;20082;-82
2023/07/25 08:28:17;;;;;;;0.85;0.25;;;18.90;99.90;;;;;;6342981;22;20007;-81
2023/07/25 08:30:43;;;;;;;1.98;0.20;;;18.90;99.90;;;;;;6370976;22;20331;-81
2023/07/25 08:33:12;;;;;;;1.55;0.30;;;19.10;99.90;;;;;;6371208;22;20064;-81
2023/07/25 08:35:38;;;;;;;1.42;0.32;;;19.20;99.90;;;;;;6370645;22;20025;-81
2023/07/25 08:38:04;;;;;;;0.93;0.30;;;19.30;99.90;;;;;;6370793;22;20460;-81
2023/07/25 08:40:30;;;;;;;4.32;0.20;;;19.30;99.90;;;;;;6316718;22;20013;-81
2023/07/25 08:43:02;;;;;;;1.48;0.20;;;19.10;99.90;;;;;;6316776;22;20018;-81
2023/07/25 08:45:28;;;;;;;0.75;0.20;;;19.10;99.90;;;;;;6342694;22;20524;-82
2023/07/25 08:48:01;;;;;;;2.92;0.28;;;19.20;99.90;;;;;;6370851;22;20078;-81
2023/07/25 08:50:29;;;;;;;4.15;0.22;;;19.20;99.90;;;;;;6368265;22;20025;-82
2023/07/25 08:52:57;;;;;;;1.70;0.30;;;19.50;99.90;;;;;;6370813;22;20082;-81
2023/07/25 08:55:23;;;;;;;2.03;0.35;;;19.80;99.90;;;;;;6369010;22;20054;-82
2023/07/25 08:57:51;;;;;;;2.47;0.30;;;20.00;99.90;;;;;;6370866;22;20014;-81
2023/07/25 09:00:16;;;;;;;1.48;0.20;;;20.10;99.90;;;;;;6370808;22;20014;-82
2023/07/25 09:02:42;;;;;;;2.70;0.45;;;20.00;99.90;;;;;;6342542;22;20071;-81
2023/07/25 09:05:09;;;;;;;4.13;0.20;;;20.10;99.90;;;;;;6370224;22;20025;-82
2023/07/25 09:07:35;;;;;;;0.52;0.13;;;20.20;99.90;;;;;;6369980;22;20071;-81
2023/07/25 09:10:01;;;;;;;1.33;0.20;;;20.40;99.90;;;;;;6368719;22;20010;-82
2023/07/25 09:12:27;;;;;;;1.45;0.20;;;20.60;99.90;;;;;;6368755;22;20021;-82
2023/07/25 09:14:53;;;;;;;1.73;0.20;;;20.60;99.90;;;;;;6370743;22;20010;-81
2023/07/25 09:17:19;;;;;;;2.95;0.20;;;20.60;99.90;;;;;;6370772;22;20058;-81
2023/07/25 09:19:46;;;;;;;1.73;0.30;;;20.50;99.60;;;;;;6368789;22;20093;-81
2023/07/25 09:22:29;;;;;;;2.67;0.40;;;20.60;98.90;;;;;;6370442;22;20029;-81
2023/07/25 09:24:57;;;;;;;0.13;0.08;;;20.80;99.20;;;;;;6370522;22;20014;-81
2023/07/25 09:27:23;;;;;;;1.85;0.20;;;20.80;99.90;;;;;;6368603;22;20021;-81
2023/07/25 09:29:53;;;;;;;0.52;0.17;;;20.70;99.90;;;;;;6370659;22;20329;-81
2023/07/25 09:32:22;;;;;;;4.47;0.35;;;20.80;99.90;;;;;;6368764;22;20457;-81
2023/07/25 09:35:08;;;;;;;2.78;0.30;;;21.00;99.80;;;;;;6370732;22;20037;-81
2023/07/25 09:37:34;;;;;;;2.67;0.22;;;20.80;99.90;;;;;;6370044;22;20010;-81
2023/07/25 09:39:59;;;;;;;3.95;0.45;;;20.30;99.90;;;;;;6368791;22;20019;-81
2023/07/25 09:42:25;;;;;;;3.70;0.28;;;20.30;99.90;;;;;;6370479;22;20437;-81
2023/07/25 09:44:53;;;;;;;2.10;0.30;;;20.30;99.90;;;;;;6368892;22;20089;-81
2023/07/25 09:47:28;;;;;;;0.98;0.20;;;20.30;99.90;;;;;;6370161;22;20463;-81
2023/07/25 09:49:55;;;;;;;2.05;0.30;;;20.30;99.90;;;;;;6369911;22;20018;-81
2023/07/25 09:52:23;;;;;;;3.10;0.30;;;20.30;99.90;;;;;;6370390;22;20014;-81
2023/07/25 09:54:49;;;;;;;4.40;0.30;;;20.50;99.70;;;;;;6370328;22;20314;-81
2023/07/25 09:57:15;;;;;;;1.52;0.20;;;20.50;99.70;;;;;;6342136;22;20025;-81
2023/07/25 09:59:42;;;;;;;1.25;0.22;;;20.50;99.90;;;;;;6370122;22;20010;-80
2023/07/25 10:02:08;;;;;;;2.60;0.35;;;20.50;99.80;;;;;;6369828;22;20092;-80
2023/07/25 10:04:38;;;;;;;0.88;0.25;;;20.40;99.90;;;;;;6341926;22;20014;-80
2023/07/25 10:07:05;;;;;;;2.53;0.20;;;20.60;99.60;;;;;;6341885;22;20011;-81
2023/07/25 10:09:31;;;;;;;3.60;0.30;;;20.60;99.10;;;;;;6369960;22;20029;-81
2023/07/25 10:11:57;;;;;;;1.38;0.28;;;20.50;99.10;;;;;;6342328;22;20046;-80
2023/07/25 10:14:23;;;;;;;3.78;0.40;;;20.40;99.50;;;;;;6370001;22;20014;-80
2023/07/25 10:16:50;;;;;;;3.67;0.30;;;20.20;98.00;;;;;;6341876;22;20025;-80
2023/07/25 10:19:15;;;;;;;0.93;0.28;;;20.20;98.60;;;;;;6369648;22;20523;-80
2023/07/25 10:21:54;;;;;;;0.70;0.10;;;20.30;97.10;;;;;;6369522;22;20053;-80
2023/07/25 10:24:20;;;;;;;2.38;0.30;;;20.20;97.30;;;;;;6370719;22;20340;-81
2023/07/25 10:26:56;;;;;;;3.25;0.20;;;20.10;97.80;;;;;;6343636;22;20017;-82
2023/07/25 10:29:41;;;;;;;1.65;0.40;;;20.00;97.50;;;;;;6371984;22;20042;-82
2023/07/25 10:32:08;;;;;;;4.25;0.30;;;20.20;99.50;;;;;;6371828;22;20014;-83
2023/07/25 10:34:49;;;;;;;1.63;0.30;;;20.30;98.40;;;;;;6344293;22;20017;-83
2023/07/25 10:37:38;;;;;;;0.47;0.13;;;20.50;98.90;;;;;;6371739;22;20029;-83
2023/07/25 10:40:12;;;;;;;0.82;0.22;;;20.40;99.60;;;;;;6343908;22;20116;-83
2023/07/25 10:42:51;;;;;;;2.28;0.40;;;20.30;99.50;;;;;;6343617;22;20081;-84
2023/07/25 10:45:28;;;;;;;1.73;0.30;;;20.40;98.30;;;;;;6371706;22;20014;-83
2023/07/25 10:47:59;;;;;;;1.55;0.20;;;20.50;99.90;;;;;;6371908;22;20070;-83
2023/07/25 10:50:45;;;;;;;2.05;0.50;;;20.60;99.90;;;;;;6371429;22;20375;-83
2023/07/25 10:53:22;;;;;;;2.35;0.30;;;20.40;98.00;;;;;;6342758;22;20511;-82
2023/07/25 10:56:03;;;;;;;1.83;0.28;;;20.30;98.10;;;;;;6371305;22;20021;-83
2023/07/25 10:58:33;;;;;;;2.85;0.20;;;19.90;99.30;;;;;;6371600;22;20452;-83
2023/07/25 11:01:00;;;;;;;1.10;0.32;;;19.80;99.90;;;;;;6371709;22;20042;-82
2023/07/25 11:03:35;;;;;;;0.47;0.20;;;20.20;98.50;;;;;;6371598;22;20500;-82
2023/07/25 11:06:07;;;;;;;3.30;0.30;;;20.50;99.10;;;;;;6342997;22;20085;-82
2023/07/25 11:08:40;;;;;;;0.68;0.20;;;20.80;97.50;;;;;;6371904;22;20025;-83
2023/07/25 11:11:11;;;;;;;1.75;0.30;;;21.00;98.20;;;;;;6343138;22;20090;-82
2023/07/25 11:13:38;;;;;;;1.92;0.30;;;21.10;98.10;;;;;;6317639;22;20036;-83
2023/07/25 11:16:05;;;;;;;0.73;0.40;;;21.40;96.20;;;;;;6343023;22;20075;-84
2023/07/25 11:18:37;;;;;;;2.38;0.40;;;21.30;98.50;;;;;;6343352;22;20022;-83
2023/07/25 11:21:07;;;;;;;1.67;0.30;;;21.40;96.50;;;;;;6371562;22;20081;-82
2023/07/25 11:23:34;;;;;;;1.13;0.20;;;21.40;96.40;;;;;;6371049;22;20014;-85
2023/07/25 11:26:06;;;;;;;0.85;0.15;;;21.40;96.40;;;;;;6370889;22;20376;-83
2023/07/25 11:28:33;;;;;;;1.20;0.20;;;21.30;96.70;;;;;;6371572;22;20318;-83
2023/07/25 11:30:58;;;;;;;2.53;0.20;;;21.40;96.60;;;;;;6370845;22;20391;-82
2023/07/25 11:33:35;;;;;;;2.85;0.52;;;21.00;97.10;;;;;;6342924;22;20079;-83
2023/07/25 11:36:01;;;;;;;1.00;0.17;;;21.20;96.90;;;;;;6370241;22;20030;-84
2023/07/25 11:38:26;;;;;;;1.30;0.10;;;21.30;97.20;;;;;;6371479;22;20379;-82
2023/07/25 11:40:54;;;;;;;0.77;0.22;;;21.20;96.70;;;;;;6317163;22;20019;-82
2023/07/25 11:43:21;;;;;;;1.17;0.10;;;21.40;95.80;;;;;;6370720;22;20018;-81
2023/07/25 11:45:48;;;;;;;2.40;0.20;;;21.50;96.90;;;;;;6372071;22;20018;-81
2023/07/25 11:48:18;;;;;;;0.60;0.10;;;21.60;98.30;;;;;;6343646;22;20018;-84
2023/07/25 11:50:48;;;;;;;2.03;0.20;;;21.70;96.70;;;;;;6376559;22;20017;-81
2023/07/25 11:53:16;;;;;;;2.75;0.25;;;21.60;96.70;;;;;;6345851;22;20464;-81
2023/07/25 11:55:42;;;;;;;0.75;0.20;;;21.50;95.50;;;;;;6372495;22;20018;-81
2023/07/25 11:58:08;;;;;;;1.13;0.20;;;21.40;96.40;;;;;;6372573;22;20018;-81
2023/07/25 12:00:40;;;;;;;2.35;0.20;;;21.50;96.60;;;;;;6372763;22;20024;-82
2023/07/25 12:03:22;;;;;;;2.25;0.28;;;21.10;96.40;;;;;;6371957;22;20019;-82
2023/07/25 12:05:55;;;;;;;0.30;0.10;;;20.80;95.40;;;;;;6344876;22;20492;-82
2023/07/25 12:08:35;;;;;;;2.53;0.30;;;21.00;96.30;;;;;;6371456;22;20418;-81
2023/07/25 12:11:03;;;;;;;0.43;0.10;;;20.90;96.30;;;;;;6343558;22;20345;-83
2023/07/25 12:13:29;;;;;;;1.40;0.20;;;21.00;96.90;;;;;;6370820;22;20018;-83
2023/07/25 12:15:58;;;;;;;1.85;0.20;;;21.20;95.50;;;;;;6316647;22;20018;-83
2023/07/25 12:18:28;;;;;;;0.95;0.43;;;21.20;95.20;;;;;;6370773;22;20026;-82
2023/07/25 12:20:57;;;;;;;2.28;0.30;;;21.50;94.40;;;;;;6343779;22;20286;-82
2023/07/25 12:23:32;;;;;;;2.78;0.20;;;21.40;95.50;;;;;;6316548;22;20106;-84
2023/07/25 12:26:00;;;;;;;2.10;0.30;;;21.30;97.20;;;;;;6342144;22;20025;-81
2023/07/25 12:28:38;;;;;;;0.55;0.10;;;21.40;96.60;;;;;;6342888;22;20386;-81
2023/07/25 12:31:04;;;;;;;0.98;0.20;;;21.70;94.70;;;;;;6370697;22;20021;-81
2023/07/25 12:33:30;;;;;;;3.35;0.30;;;21.30;94.00;;;;;;6342451;22;20341;-80
2023/07/25 12:35:57;;;;;;;2.35;0.20;;;21.20;95.00;;;;;;6342250;22;20449;-80
2023/07/25 12:38:23;;;;;;;1.35;0.20;;;21.10;96.10;;;;;;6370220;22;20022;-81
2023/07/25 12:40:49;;;;;;;1.30;0.28;;;21.30;95.70;;;;;;6370601;22;20340;-81
2023/07/25 12:43:15;;;;;;;3.80;0.30;;;21.30;96.80;;;;;;6370513;22;20056;-81
2023/07/25 12:45:42;;;;;;;3.08;0.20;;;21.40;96.20;;;;;;6370585;22;20014;-80
2023/07/25 12:48:08;;;;;;;1.63;0.20;;;21.60;95.90;;;;;;6370129;22;20014;-81
2023/07/25 12:50:34;;;;;;;1.00;0.20;;;21.70;95.20;;;;;;6342949;22;20018;-81